Data for 06/21/2010

Time Sea-Level Adjusted Pressure Absolute Pressure Temperature Relative Humidity Dew Point   
(mb) (inHg) (mb) (inHg) (C) (F) (%) (C) (F)
00:05 1019 30.09 848 25.04 8.6 47.5 88 6.7 44.1
00:10 1019 30.09 848 25.04 8.6 47.4 88 6.7 44.1
00:15 1019 30.09 848 25.04 8.5 47.3 88 6.7 44
00:20 1019 30.09 848 25.04 8.5 47.4 88 6.6 43.9
00:25 1019 30.09 848 25.04 8.5 47.3 88 6.7 44
00:30 1019 30.09 848 25.04 8.5 47.2 88 6.6 44
00:35 1019 30.09 848 25.04 8.3 47 89 6.6 43.8
00:40 1019 30.09 848 25.04 8.2 46.8 89 6.5 43.8
00:45 1019 30.09 848 25.04 8.2 46.7 89 6.5 43.7
00:50 1019 30.09 848 25.04 8.2 46.8 89 6.5 43.8
00:55 1019 30.09 848 25.04 8.3 46.9 89 6.6 43.8
01:00 1019 30.09 848 25.04 8.3 46.9 89 6.6 43.8
01:05 1018 30.06 848 25.04 8.2 46.8 90 6.6 43.9
01:10 1018 30.06 848 25.04 8.1 46.6 90 6.5 43.7
01:15 1019 30.09 848 25.04 8 46.3 89 6.3 43.4
01:20 1019 30.09 848 25.04 7.8 46 89 6.2 43.1
01:25 1018 30.06 848 25.04 7.7 45.8 90 6.1 43
01:30 1018 30.06 847 25.01 7.4 45.2 91 6 42.7
01:35 1018 30.06 847 25.01 7.3 45.1 92 6 42.8
01:40 1018 30.06 847 25.01 7.4 45.2 90 5.9 42.5
01:45 1018 30.06 847 25.01 7.5 45.4 89 5.8 42.5
01:50 1018 30.06 847 25.01 7.6 45.7 88 5.8 42.5
01:55 1018 30.06 847 25.01 7.9 46.2 87 5.9 42.7
02:00 1018 30.06 847 25.01 7.9 46.3 88 6 42.8
02:05 1018 30.06 847 25.01 7.9 46.2 89 6.1 43.1
02:10 1018 30.06 847 25.01 7.9 46.1 88 6 42.8
02:15 1018 30.06 847 25.01 8.1 46.7 85 5.8 42.5
02:20 1018 30.06 847 25.01 8.4 47 85 6 42.8
02:25 1018 30.06 847 25.01 8.4 47.1 85 6.1 42.9
02:30 1017 30.03 847 25.01 8.4 47.1 85 6 42.8
02:35 1018 30.06 847 25.01 8.7 47.6 84 6.1 43
02:40 1017 30.03 847 25.01 8.8 47.8 84 6.2 43.2
02:45 1017 30.03 847 25.01 8.9 48.1 83 6.3 43.3
02:50 1017 30.03 847 25.01 9.2 48.6 83 6.4 43.6
02:55 1017 30.03 847 25.01 9.4 48.9 82 6.5 43.8
03:00 1017 30.03 847 25.01 9.6 49.2 82 6.7 44
03:05 1017 30.03 847 25.01 9.7 49.4 83 6.8 44.3
03:10 1017 30.03 846 24.98 9.6 49.3 83 6.9 44.4
03:15 1017 30.03 846 24.98 9.7 49.5 82 6.8 44.3
03:20 1017 30.03 846 24.98 9.8 49.7 82 6.9 44.5
03:25 1017 30.03 846 24.98 9.8 49.7 83 7 44.6
03:30 1017 30.03 846 24.98 9.7 49.5 83 7 44.7
03:35 1017 30.03 846 24.98 9.4 48.9 85 7.1 44.7
03:40 1017 30.03 846 24.98 9 48.2 86 6.8 44.2
03:45 1017 30.03 846 24.98 9 48.1 86 6.7 44.1
03:50 1017 30.03 846 24.98 9.1 48.3 85 6.7 44
03:55 1017 30.03 846 24.98 8.6 47.4 84 6.1 43
04:00 1017 30.03 846 24.98 8 46.5 87 6 42.9
04:05 1017 30.03 846 24.98 7.9 46.3 88 6 42.8
04:10 1017 30.03 846 24.98 7.9 46.3 85 5.5 41.9
04:15 1017 30.03 846 24.98 7.8 46.1 87 5.7 42.3
04:20 1017 30.03 846 24.98 7.8 46 85 5.4 41.7
04:25 1017 30.03 846 24.98 7.8 46.1 84 5.3 41.5
04:30 1017 30.03 846 24.98 7.8 46 84 5.3 41.5
04:35 1017 30.03 846 24.98 7.4 45.4 86 5.2 41.3
04:40 1017 30.03 846 24.98 7.2 44.9 86 5.1 41.1
04:45 1017 30.03 846 24.98 7 44.5 87 5 41
04:50 1017 30.03 846 24.98 6.8 44.2 88 4.9 40.9
04:55 1017 30.03 846 24.98 6.6 43.9 88 4.8 40.7
05:00 1017 30.03 846 24.98 6.5 43.6 90 4.9 40.8
05:05 1017 30.03 846 24.98 6.3 43.4 90 4.8 40.7
05:10 1017 30.03 846 24.98 6.5 43.7 88 4.6 40.4
05:15 1017 30.03 846 24.98 7 44.6 87 4.9 40.9
05:20 1017 30.03 846 24.98 7 44.7 86 4.9 40.8
05:25 1017 30.03 846 24.98 7.1 44.8 87 5 41.1
05:30 1017 30.03 846 24.98 6.9 44.4 87 4.9 40.8
05:35 1017 30.03 846 24.98 7.1 44.8 86 4.9 40.9
05:40 1017 30.03 846 24.98 7.2 44.9 85 4.8 40.6
05:45 1017 30.03 846 24.98 7 44.6 86 4.8 40.6
05:50 1017 30.03 846 24.98 6.8 44.3 86 4.7 40.5
05:55 1017 30.03 846 24.98 6.9 44.5 86 4.7 40.5
06:00 1017 30.03 846 24.98 6.8 44.3 86 4.7 40.5
06:05 1017 30.03 846 24.98 6.9 44.4 86 4.7 40.5
06:10 1017 30.03 846 24.98 7 44.5 85 4.6 40.3
06:15 1017 30.03 846 24.98 7.1 44.8 85 4.7 40.5
06:20 1017 30.03 846 24.98 6.9 44.5 86 4.7 40.4
06:25 1017 30.03 846 24.98 6.7 44 87 4.7 40.4
06:30 1017 30.03 846 24.98 6.5 43.8 88 4.7 40.5
06:35 1017 30.03 846 24.98 6.4 43.6 88 4.6 40.2
06:40 1017 30.03 846 24.98 6.6 43.9 87 4.6 40.3
06:45 1017 30.03 846 24.98 6.8 44.2 86 4.7 40.5
06:50 1017 30.03 846 24.98 6.9 44.4 86 4.7 40.5
06:55 1017 30.03 846 24.98 6.9 44.4 87 4.8 40.7
07:00 1017 30.03 846 24.98 6.7 44 88 4.8 40.6
07:05 1017 30.03 846 24.98 6.5 43.7 88 4.7 40.4
07:10 1017 30.03 846 24.98 6.5 43.8 88 4.7 40.4
07:15 1017 30.03 846 24.98 6.9 44.4 86 4.7 40.4
07:20 1017 30.03 846 24.98 7.2 45 85 4.9 40.8
07:25 1017 30.03 846 24.98 7.8 46 84 5.2 41.4
07:30 1017 30.03 846 24.98 8.3 47 82 5.4 41.7
07:35 1017 30.03 846 24.98 8.5 47.3 81 5.5 41.8
07:40 1017 30.03 846 24.98 9 48.1 79 5.6 42.1
07:45 1017 30.03 846 24.98 9.2 48.5 80 5.9 42.7
07:50 1017 30.03 846 24.98 9.6 49.2 78 5.9 42.7
07:55 1017 30.03 846 24.98 10 49.9 75 5.8 42.5
08:00 1017 30.03 846 24.98 10.2 50.4 75 6 42.9
08:05 1017 30.03 846 24.98 10.4 50.6 75 6.2 43.1
08:10 1017 30.03 846 24.98 10.7 51.3 73 6 42.9
08:15 1017 30.03 846 24.98 11.2 52.1 72 6.4 43.5
08:20 1017 30.03 847 25.01 12.1 53.8 68 6.4 43.5
08:25 1017 30.03 847 25.01 12.8 55 69 7.2 45
08:30 1017 30.03 847 25.01 12.7 54.8 70 7.4 45.4
08:35 1017 30.03 846 24.98 13.5 56.3 65 7.2 44.9
08:40 1017 30.03 846 24.98 13.6 56.4 64 7 44.6
08:45 1017 30.03 847 25.01 12.9 55.3 67 7.1 44.7
08:50 1017 30.03 847 25.01 13.5 56.3 64 6.8 44.3
08:55 1018 30.06 847 25.01 13.2 55.7 65 6.7 44.1
09:00 1018 30.06 847 25.01 13.6 56.4 65 7.3 45.1
09:05 1018 30.06 847 25.01 13.5 56.3 66 7.4 45.3
09:10 1018 30.06 847 25.01 13.2 55.7 68 7.6 45.6
09:15 1018 30.06 847 25.01 12.9 55.3 69 7.3 45.2
09:20 1018 30.06 847 25.01 13.3 56 69 7.7 45.9
09:25 1018 30.06 847 25.01 13.1 55.5 70 7.7 45.8
09:30 1018 30.06 847 25.01 12.8 55.1 70 7.6 45.6
09:35 1018 30.06 847 25.01 13.7 56.7 66 7.6 45.7
09:40 1018 30.06 847 25.01 13.8 56.9 70 8.4 47.2
09:45 1018 30.06 847 25.01 13.6 56.5 66 7.5 45.5
09:50 1018 30.06 847 25.01 13.9 57 67 7.9 46.3
09:55 1018 30.06 847 25.01 13.5 56.3 69 7.9 46.3
10:00 1018 30.06 847 25.01 13.2 55.7 69 7.6 45.7
10:05 1018 30.06 847 25.01 13.3 56 69 7.8 46
10:10 1018 30.06 847 25.01 13 55.3 69 7.5 45.4
10:15 1018 30.06 847 25.01 12.9 55.3 73 8.2 46.7
10:20 1018 30.06 847 25.01 13.3 55.9 67 7.4 45.3
10:25 1018 30.06 847 25.01 13.1 55.7 69 7.7 45.9
10:30 1018 30.06 847 25.01 13.8 56.8 66 7.6 45.6
10:35 1018 30.06 847 25.01 14.2 57.6 65 7.8 46
10:40 1018 30.06 847 25.01 13.8 56.9 65 7.4 45.4
10:45 1018 30.06 847 25.01 14.3 57.7 64 7.5 45.6
10:50 1018 30.06 847 25.01 14.5 58.1 62 7.4 45.3
10:55 1018 30.06 847 25.01 14.1 57.4 63 7.3 45.2
11:00 1018 30.06 847 25.01 15.1 59.2 62 7.9 46.2
11:05 1018 30.06 847 25.01 15.1 59.3 57 6.8 44.3
11:10 1018 30.06 847 25.01 16 60.8 57 7.4 45.4
11:15 1018 30.06 847 25.01 16.5 61.7 52 6.8 44.3
11:20 1018 30.06 847 25.01 16.5 61.7 54 7.2 44.9
11:25 1018 30.06 847 25.01 15.7 60.3 56 7.1 44.8
11:30 1018 30.06 847 25.01 15.6 60.1 56 7 44.6
11:35 1018 30.06 847 25.01 15.6 60.1 57 7.2 45
11:40 1018 30.06 847 25.01 15.6 60.1 55 6.7 44
11:45 1018 30.06 847 25.01 16.4 61.6 51 6.4 43.5
11:50 1018 30.06 847 25.01 16.5 61.7 53 7.1 44.8
11:55 1018 30.06 847 25.01 16.8 62.3 50 6.5 43.7
12:00 1018 30.06 847 25.01 16.4 61.5 55 7.3 45.2
12:05 1018 30.06 847 25.01 16.1 61 54 6.8 44.3
12:10 1018 30.06 847 25.01 17 62.7 51 6.9 44.4
12:15 1018 30.06 847 25.01 17.3 63.2 51 7.3 45.2
12:20 1018 30.06 847 25.01 17.1 62.9 50 6.7 44.1
12:25 1018 30.06 847 25.01 17.6 63.7 49 6.9 44.3
12:30 1018 30.06 847 25.01 18 64.4 48 7 44.6
12:35 1018 30.06 847 25.01 18.1 64.6 47 6.7 44
12:40 1018 30.06 847 25.01 18.5 65.3 49 7.6 45.6
12:45 1018 30.06 847 25.01 18.3 65 48 7.2 45
12:50 1018 30.06 847 25.01 16.7 62 55 7.6 45.7
12:55 1018 30.06 847 25.01 16.5 61.8 55 7.5 45.5
13:00 1018 30.06 847 25.01 15.9 60.6 55 6.9 44.4
13:05 1018 30.06 847 25.01 15.7 60.2 55 6.7 44.1
13:10 1018 30.06 847 25.01 16.3 61.4 50 6.1 43
13:15 1018 30.06 847 25.01 17.5 63.6 50 7.1 44.8
13:20 1018 30.06 847 25.01 16.4 61.5 54 7.2 44.9
13:25 1018 30.06 847 25.01 17.3 63.1 48 6.3 43.4
13:30 1018 30.06 847 25.01 18.4 65.1 45 6.4 43.6
13:35 1017 30.03 847 25.01 18.9 66 43 6.2 43.1
13:40 1017 30.03 847 25.01 19 66.2 45 7 44.6
13:45 1017 30.03 847 25.01 18.9 66.1 43 6.3 43.4
13:50 1017 30.03 847 25.01 19.4 67 42 6.2 43.1
13:55 1017 30.03 847 25.01 19.1 66.4 44 6.6 43.9
14:00 1017 30.03 847 25.01 18.9 66 41 5.4 41.8
14:05 1017 30.03 847 25.01 19.1 66.3 41 5.8 42.4
14:10 1017 30.03 847 25.01 19.1 66.4 42 6 42.9
14:15 1017 30.03 847 25.01 19.8 67.6 40 5.9 42.7
14:20 1017 30.03 846 24.98 20.1 68.2 38 5.4 41.7
14:25 1017 30.03 846 24.98 20.1 68.2 39 6 42.7
14:30 1017 30.03 846 24.98 19.6 67.2 38 5.2 41.3
14:35 1017 30.03 846 24.98 20.1 68.2 38 5.7 42.3
14:40 1017 30.03 846 24.98 20.3 68.6 37 5.2 41.4
14:45 1017 30.03 847 25.01 20.6 69.1 35 4.9 40.9
14:50 1017 30.03 846 24.98 20.8 69.5 36 5.2 41.4
14:55 1017 30.03 846 24.98 21.3 70.4 34 5 41
15:00 1017 30.03 846 24.98 21.7 71 37 6.4 43.5
15:05 1017 30.03 846 24.98 20.4 68.8 38 5.7 42.3
15:10 1017 30.03 846 24.98 19.8 67.7 39 5.6 42.1
15:15 1017 30.03 846 24.98 20.9 69.6 36 5.2 41.4
15:20 1017 30.03 846 24.98 19.8 67.6 38 5.2 41.4
15:25 1017 30.03 846 24.98 19.8 67.6 38 5.4 41.7
15:30 1017 30.03 846 24.98 19.3 66.7 40 5.4 41.7
15:35 1017 30.03 846 24.98 20.4 68.7 35 4.6 40.4
15:40 1017 30.03 846 24.98 21.4 70.5 32 4.2 39.5
15:45 1017 30.03 846 24.98 21.1 70 35 5.1 41.1
15:50 1017 30.03 846 24.98 20.9 69.5 32 3.6 38.6
15:55 1017 30.03 846 24.98 20.5 68.8 35 4.8 40.7
16:00 1017 30.03 846 24.98 20.3 68.6 37 5.4 41.6
16:05 1017 30.03 846 24.98 20.5 68.9 33 3.8 38.8
16:10 1017 30.03 846 24.98 21.2 70.2 32 4.2 39.6
16:15 1017 30.03 846 24.98 21.1 70 33 4.2 39.6
16:20 1017 30.03 846 24.98 21.1 69.9 32 3.8 38.9
16:25 1017 30.03 846 24.98 21.1 70.1 32 3.8 38.9
16:30 1017 30.03 846 24.98 21.5 70.7 31 4 39.2
16:35 1017 30.03 846 24.98 21 69.8 30 2.9 37.2
16:40 1017 30.03 846 24.98 20.5 69 30 2.7 36.9
16:45 1017 30.03 846 24.98 20.6 69.1 30 2.4 36.3
16:50 1017 30.03 846 24.98 21 69.8 29 2.4 36.4
16:55 1017 30.03 846 24.98 20.9 69.6 30 2.6 36.7
17:00 1017 30.03 846 24.98 20.7 69.2 30 2.8 37.1
17:05 1017 30.03 846 24.98 19.4 67 32 2.6 36.6
17:10 1017 30.03 846 24.98 19.6 67.3 32 2.5 36.5
17:15 1017 30.03 846 24.98 20.6 69 28 1.5 34.6
17:20 1017 30.03 846 24.98 21.3 70.3 28 2.3 36.2
17:25 1017 30.03 846 24.98 21.1 70 28 2.1 35.8
17:30 1017 30.03 846 24.98 20.6 69 28 1.8 35.3
17:35 1017 30.03 847 25.01 20.4 68.6 29 1.7 35
17:40 1017 30.03 847 25.01 20.2 68.3 29 1.8 35.3
17:45 1017 30.03 847 25.01 20.6 69 27 1.2 34.2
17:50 1017 30.03 847 25.01 20.3 68.6 29 1.8 35.3
17:55 1017 30.03 847 25.01 20.6 69 28 1.5 34.7
18:00 1017 30.03 847 25.01 20.8 69.4 29 2.3 36.1
18:05 1017 30.03 847 25.01 20.3 68.6 30 2.4 36.3
18:10 1017 30.03 847 25.01 20.7 69.3 30 2.6 36.6
18:15 1017 30.03 846 24.98 20.7 69.3 27 1.2 34.2
18:20 1017 30.03 847 25.01 20.5 68.8 28 1.4 34.5
18:25 1017 30.03 847 25.01 21.1 69.9 28 2.2 36
18:30 1017 30.03 847 25.01 20.8 69.4 29 2.3 36.1
18:35 1017 30.03 847 25.01 20.7 69.3 27 1.1 34
18:40 1017 30.03 847 25.01 20.8 69.4 27 1.1 34
18:45 1017 30.03 847 25.01 20.7 69.2 28 1.6 34.9
18:50 1017 30.03 847 25.01 20.8 69.4 27 1.5 34.7
18:55 1017 30.03 847 25.01 20.7 69.3 28 1.5 34.7
19:00 1017 30.03 847 25.01 20.3 68.5 28 1.4 34.5
19:05 1017 30.03 847 25.01 20.7 69.2 28 1.9 35.3
19:10 1017 30.03 847 25.01 20.5 68.9 28 1.3 34.4
19:15 1017 30.03 847 25.01 20.2 68.3 28 1.4 34.4
19:20 1017 30.03 847 25.01 20.3 68.6 30 2.4 36.3
19:25 1017 30.03 847 25.01 19.9 67.9 32 2.7 36.9
19:30 1018 30.06 847 25.01 19.3 66.7 33 2.7 36.9
19:35 1018 30.06 847 25.01 19.2 66.5 34 3 37.5
19:40 1018 30.06 847 25.01 18.9 66 35 3.2 37.7
19:45 1018 30.06 847 25.01 18.8 65.8 36 3.7 38.6
19:50 1018 30.06 847 25.01 19 66.3 36 3.9 39.1
19:55 1018 30.06 847 25.01 19.1 66.3 36 3.6 38.5
20:00 1018 30.06 847 25.01 18.7 65.7 36 3.7 38.6
20:05 1018 30.06 847 25.01 18.4 65.2 37 3.4 38.2
20:10 1018 30.06 847 25.01 18.3 64.9 36 3.2 37.8
20:15 1018 30.06 847 25.01 18.1 64.5 39 3.9 39
20:20 1018 30.06 847 25.01 18.1 64.6 38 3.9 38.9
20:25 1018 30.06 847 25.01 18.2 64.7 37 3.4 38.1
20:30 1018 30.06 847 25.01 18.2 64.8 39 4 39.2
20:35 1018 30.06 847 25.01 18.2 64.7 40 4.5 40.1
20:40 1018 30.06 847 25.01 18.2 64.7 39 4.2 39.5
20:45 1018 30.06 847 25.01 18 64.4 39 4 39.1
20:50 1018 30.06 847 25.01 17.9 64.3 39 3.8 38.9
20:55 1018 30.06 847 25.01 17.9 64.2 40 4.1 39.4
21:00 1018 30.06 847 25.01 17.8 64.1 40 4.3 39.7
21:05 1018 30.06 847 25.01 17.6 63.8 41 4.3 39.8
21:10 1018 30.06 847 25.01 17.5 63.5 42 4.5 40.1
21:15 1018 30.06 847 25.01 17.4 63.3 41 4.3 39.7
21:20 1018 30.06 847 25.01 17.3 63.1 43 4.7 40.5
21:25 1018 30.06 848 25.04 17.2 62.9 45 5.3 41.6
21:30 1018 30.06 848 25.04 16.9 62.4 51 6.7 44.1
21:35 1018 30.06 848 25.04 16.3 61.4 56 7.6 45.6
21:40 1018 30.06 848 25.04 15.5 60 56 6.8 44.2
21:45 1019 30.09 848 25.04 15.2 59.3 58 7 44.6
21:50 1019 30.09 848 25.04 14.5 58.1 61 7 44.6
21:55 1019 30.09 848 25.04 14.1 57.4 61 6.9 44.4
22:00 1019 30.09 848 25.04 14 57.1 63 7 44.6
22:05 1019 30.09 848 25.04 13.5 56.4 64 6.8 44.3
22:10 1019 30.09 848 25.04 13.4 56 65 6.9 44.5
22:15 1019 30.09 848 25.04 13.3 55.9 63 6.5 43.7
22:20 1019 30.09 848 25.04 13.4 56.1 63 6.6 43.9
22:25 1019 30.09 848 25.04 13.2 55.8 64 6.7 44.1
22:30 1019 30.09 849 25.07 13 55.3 66 6.7 44.1
22:35 1019 30.09 849 25.07 12.9 55.1 66 6.6 43.9
22:40 1019 30.09 849 25.07 12.7 54.9 67 6.7 44.1
22:45 1019 30.09 849 25.07 12.4 54.3 68 6.7 44.1
22:50 1019 30.09 849 25.07 12.2 54 67 6.3 43.4
22:55 1019 30.09 849 25.07 12.5 54.6 67 6.6 43.8
23:00 1019 30.09 849 25.07 12.3 54.1 68 6.7 44
23:05 1019 30.09 849 25.07 12.2 53.9 66 6.1 43.1
23:10 1019 30.09 849 25.07 12.4 54.3 66 6.2 43.1
23:15 1019 30.09 849 25.07 12.3 54.2 67 6.4 43.5
23:20 1019 30.09 849 25.07 12.1 53.7 68 6.3 43.3
23:25 1019 30.09 849 25.07 12.1 53.7 66 6 42.8
23:30 1019 30.09 849 25.07 12 53.6 69 6.5 43.7
23:35 1019 30.09 849 25.07 11.3 52.4 70 6.1 43
23:40 1019 30.09 849 25.07 11.2 52.1 70 6 42.8
23:45 1019 30.09 849 25.07 11.2 52.1 70 6 42.8
23:50 1019 30.09 849 25.07 11 51.7 71 5.9 42.5
23:55 1019 30.09 849 25.07 10.9 51.6 71 5.8 42.4
24:00 1019 30.09 849 25.07 10.9 51.6 70 5.8 42.4